Angela, Montana
Current Conditions -  °F | °C
As of 6:53 PM on Sunday 23 Nov 2014 (Local Time) from KMLS Reporting Station
Clear Clear  
Wind Chill: 16°   Ceiling: Unl
Heat Index: 25°   Visibility: 10mi
Dew Point: 21°   Wind: 8mph
Humidity: 85%   Direction: 30°NNE
Pressure: 29.82"   Gusts: NA
Location:  46.73°N, 106.2°W
Report Text: KMLS 240153Z AUTO 03007KT 10SM CLR M04/M06 A2982 RMK AO2 SLP122 T10391061
Loading
Personal Weather Stations






























Interactive Weather Map New forecast layout! Learn more

10-Day Weather Forecast

Advertisements
Track Severe Weather on mobile